sensor_id;sensor_type;location;lat;lon;timestamp;temperature;humidity
65568;DHT22;52211;50.154;8.682;2023-03-01T00:01:59;3.10;42.80
65568;DHT22;52211;50.154;8.682;2023-03-01T00:04:26;3.10;42.80
65568;DHT22;52211;50.154;8.682;2023-03-01T00:07:00;3.10;42.60
65568;DHT22;52211;50.154;8.682;2023-03-01T00:09:26;3.10;42.80
65568;DHT22;52211;50.154;8.682;2023-03-01T00:11:57;3.10;43.00
65568;DHT22;52211;50.154;8.682;2023-03-01T00:14:27;3.00;42.90
65568;DHT22;52211;50.154;8.682;2023-03-01T00:16:56;3.10;43.10
65568;DHT22;52211;50.154;8.682;2023-03-01T00:19:23;3.10;43.10
65568;DHT22;52211;50.154;8.682;2023-03-01T00:21:57;3.10;43.00
65568;DHT22;52211;50.154;8.682;2023-03-01T00:24:26;3.10;43.10
65568;DHT22;52211;50.154;8.682;2023-03-01T00:26:56;3.00;43.00
65568;DHT22;52211;50.154;8.682;2023-03-01T00:29:24;3.00;43.20
65568;DHT22;52211;50.154;8.682;2023-03-01T00:31:54;3.10;43.30
65568;DHT22;52211;50.154;8.682;2023-03-01T00:34:27;3.00;43.20
65568;DHT22;52211;50.154;8.682;2023-03-01T00:36:56;3.00;43.20
65568;DHT22;52211;50.154;8.682;2023-03-01T00:39:32;3.10;43.30
65568;DHT22;52211;50.154;8.682;2023-03-01T00:42:01;3.00;43.20
65568;DHT22;52211;50.154;8.682;2023-03-01T00:44:28;3.00;43.30
65568;DHT22;52211;50.154;8.682;2023-03-01T00:46:57;3.00;43.40
65568;DHT22;52211;50.154;8.682;2023-03-01T00:49:24;3.00;43.40
65568;DHT22;52211;50.154;8.682;2023-03-01T00:51:55;3.00;43.50
65568;DHT22;52211;50.154;8.682;2023-03-01T00:54:24;3.00;43.50
65568;DHT22;52211;50.154;8.682;2023-03-01T00:56:53;3.10;43.50
65568;DHT22;52211;50.154;8.682;2023-03-01T00:59:20;3.00;43.50
65568;DHT22;52211;50.154;8.682;2023-03-01T01:01:47;3.00;43.50
65568;DHT22;52211;50.154;8.682;2023-03-01T01:04:15;3.00;43.50
65568;DHT22;52211;50.154;8.682;2023-03-01T01:06:44;3.00;43.60
65568;DHT22;52211;50.154;8.682;2023-03-01T01:09:16;3.10;43.70
65568;DHT22;52211;50.154;8.682;2023-03-01T01:11:51;3.10;43.70
65568;DHT22;52211;50.154;8.682;2023-03-01T01:14:23;3.00;43.60
65568;DHT22;52211;50.154;8.682;2023-03-01T01:16:53;3.00;43.70
65568;DHT22;52211;50.154;8.682;2023-03-01T01:19:21;3.00;43.70
65568;DHT22;52211;50.154;8.682;2023-03-01T01:21:51;3.00;43.70
65568;DHT22;52211;50.154;8.682;2023-03-01T01:24:22;3.00;43.70
65568;DHT22;52211;50.154;8.682;2023-03-01T01:26:52;3.00;44.40
65568;DHT22;52211;50.154;8.682;2023-03-01T01:29:19;3.00;43.80
65568;DHT22;52211;50.154;8.682;2023-03-01T01:31:48;3.00;43.80
65568;DHT22;52211;50.154;8.682;2023-03-01T01:34:20;3.00;43.90
65568;DHT22;52211;50.154;8.682;2023-03-01T01:36:51;3.00;44.70
65568;DHT22;52211;50.154;8.682;2023-03-01T01:39:22;3.00;44.00
65568;DHT22;52211;50.154;8.682;2023-03-01T01:41:49;3.00;43.90
65568;DHT22;52211;50.154;8.682;2023-03-01T01:44:25;3.00;43.90
65568;DHT22;52211;50.154;8.682;2023-03-01T01:47:12;3.00;44.00
65568;DHT22;52211;50.154;8.682;2023-03-01T01:49:59;3.00;44.80
65568;DHT22;52211;50.154;8.682;2023-03-01T01:52:35;3.10;44.90
65568;DHT22;52211;50.154;8.682;2023-03-01T01:55:25;3.10;45.20
65568;DHT22;52211;50.154;8.682;2023-03-01T01:58:01;3.10;45.00
65568;DHT22;52211;50.154;8.682;2023-03-01T02:00:34;3.10;44.20
65568;DHT22;52211;50.154;8.682;2023-03-01T02:03:14;3.00;44.10
65568;DHT22;52211;50.154;8.682;2023-03-01T02:08:48;3.10;44.30
65568;DHT22;52211;50.154;8.682;2023-03-01T02:11:21;3.10;44.10
65568;DHT22;52211;50.154;8.682;2023-03-01T02:13:51;3.10;44.20
65568;DHT22;52211;50.154;8.682;2023-03-01T02:16:20;3.10;44.20
65568;DHT22;52211;50.154;8.682;2023-03-01T02:18:49;3.10;44.20
65568;DHT22;52211;50.154;8.682;2023-03-01T02:23:54;3.10;44.70
65568;DHT22;52211;50.154;8.682;2023-03-01T02:26:33;3.10;44.20
65568;DHT22;52211;50.154;8.682;2023-03-01T02:29:12;3.10;44.60
65568;DHT22;52211;50.154;8.682;2023-03-01T02:31:39;3.10;44.20
65568;DHT22;52211;50.154;8.682;2023-03-01T02:34:23;3.20;44.30
65568;DHT22;52211;50.154;8.682;2023-03-01T02:37:00;3.10;44.60
65568;DHT22;52211;50.154;8.682;2023-03-01T02:39:36;3.20;44.60
65568;DHT22;52211;50.154;8.682;2023-03-01T02:42:14;3.10;44.50
65568;DHT22;52211;50.154;8.682;2023-03-01T02:44:55;3.20;44.60
65568;DHT22;52211;50.154;8.682;2023-03-01T02:47:24;3.20;44.40
65568;DHT22;52211;50.154;8.682;2023-03-01T02:49:53;3.20;44.50
65568;DHT22;52211;50.154;8.682;2023-03-01T02:52:39;3.20;44.60
65568;DHT22;52211;50.154;8.682;2023-03-01T02:55:20;3.20;44.80
65568;DHT22;52211;50.154;8.682;2023-03-01T02:57:50;3.20;44.60
65568;DHT22;52211;50.154;8.682;2023-03-01T03:00:26;3.20;44.60
65568;DHT22;52211;50.154;8.682;2023-03-01T03:03:03;3.20;44.60
65568;DHT22;52211;50.154;8.682;2023-03-01T03:05:35;3.20;44.60
65568;DHT22;52211;50.154;8.682;2023-03-01T03:08:07;3.20;44.70
65568;DHT22;52211;50.154;8.682;2023-03-01T03:10:39;3.20;44.60
65568;DHT22;52211;50.154;8.682;2023-03-01T03:13:12;3.20;44.80
65568;DHT22;52211;50.154;8.682;2023-03-01T03:15:45;3.20;44.70
65568;DHT22;52211;50.154;8.682;2023-03-01T03:18:16;3.20;44.70
65568;DHT22;52211;50.154;8.682;2023-03-01T03:20:45;3.20;44.80
65568;DHT22;52211;50.154;8.682;2023-03-01T03:23:15;3.20;44.80
65568;DHT22;52211;50.154;8.682;2023-03-01T03:25:44;3.20;44.90
65568;DHT22;52211;50.154;8.682;2023-03-01T03:28:16;3.20;44.70
65568;DHT22;52211;50.154;8.682;2023-03-01T03:30:46;3.20;44.80
65568;DHT22;52211;50.154;8.682;2023-03-01T03:33:16;3.20;44.60
65568;DHT22;52211;50.154;8.682;2023-03-01T03:35:49;3.20;44.70
65568;DHT22;52211;50.154;8.682;2023-03-01T03:38:18;3.20;44.80
65568;DHT22;52211;50.154;8.682;2023-03-01T03:40:58;3.20;44.70
65568;DHT22;52211;50.154;8.682;2023-03-01T03:43:30;3.20;44.90
65568;DHT22;52211;50.154;8.682;2023-03-01T03:45:59;3.10;44.80
65568;DHT22;52211;50.154;8.682;2023-03-01T03:48:37;3.10;44.80
65568;DHT22;52211;50.154;8.682;2023-03-01T03:51:06;3.10;45.00
65568;DHT22;52211;50.154;8.682;2023-03-01T03:53:36;3.10;44.90
65568;DHT22;52211;50.154;8.682;2023-03-01T03:56:03;3.10;45.00
65568;DHT22;52211;50.154;8.682;2023-03-01T03:58:34;3.10;44.90
65568;DHT22;52211;50.154;8.682;2023-03-01T04:01:04;3.10;45.10
65568;DHT22;52211;50.154;8.682;2023-03-01T04:03:32;3.10;45.10
65568;DHT22;52211;50.154;8.682;2023-03-01T04:06:06;3.10;45.00
65568;DHT22;52211;50.154;8.682;2023-03-01T04:08:33;3.10;45.00
65568;DHT22;52211;50.154;8.682;2023-03-01T04:11:03;3.10;45.00
65568;DHT22;52211;50.154;8.682;2023-03-01T04:13:56;3.10;45.00
65568;DHT22;52211;50.154;8.682;2023-03-01T04:16:27;3.10;44.90
65568;DHT22;52211;50.154;8.682;2023-03-01T04:18:55;3.00;45.00
65568;DHT22;52211;50.154;8.682;2023-03-01T04:21:26;3.00;44.90
65568;DHT22;52211;50.154;8.682;2023-03-01T04:23:53;3.00;45.00
65568;DHT22;52211;50.154;8.682;2023-03-01T04:26:22;3.00;45.00
65568;DHT22;52211;50.154;8.682;2023-03-01T04:28:53;3.00;45.00
65568;DHT22;52211;50.154;8.682;2023-03-01T04:31:20;3.00;45.10
65568;DHT22;52211;50.154;8.682;2023-03-01T04:33:53;2.90;45.10
65568;DHT22;52211;50.154;8.682;2023-03-01T04:36:26;2.90;45.40
65568;DHT22;52211;50.154;8.682;2023-03-01T04:38:55;2.90;45.20
65568;DHT22;52211;50.154;8.682;2023-03-01T04:41:27;2.90;45.30
65568;DHT22;52211;50.154;8.682;2023-03-01T04:43:54;2.90;45.30
65568;DHT22;52211;50.154;8.682;2023-03-01T04:46:23;2.80;45.30
65568;DHT22;52211;50.154;8.682;2023-03-01T04:48:53;2.80;45.30
65568;DHT22;52211;50.154;8.682;2023-03-01T04:51:22;2.90;45.30
65568;DHT22;52211;50.154;8.682;2023-03-01T04:53:54;2.80;45.40
65568;DHT22;52211;50.154;8.682;2023-03-01T04:56:21;2.90;45.50
65568;DHT22;52211;50.154;8.682;2023-03-01T04:58:49;2.80;45.50
65568;DHT22;52211;50.154;8.682;2023-03-01T05:01:22;2.80;45.40
65568;DHT22;52211;50.154;8.682;2023-03-01T05:03:56;2.80;45.60
65568;DHT22;52211;50.154;8.682;2023-03-01T05:06:29;2.80;45.70
65568;DHT22;52211;50.154;8.682;2023-03-01T05:09:01;2.80;45.60
65568;DHT22;52211;50.154;8.682;2023-03-01T05:11:28;2.80;45.60
65568;DHT22;52211;50.154;8.682;2023-03-01T05:14:00;2.80;45.70
65568;DHT22;52211;50.154;8.682;2023-03-01T05:16:27;2.80;45.70
65568;DHT22;52211;50.154;8.682;2023-03-01T05:18:57;2.80;45.80
65568;DHT22;52211;50.154;8.682;2023-03-01T05:21:28;2.80;45.70
65568;DHT22;52211;50.154;8.682;2023-03-01T05:23:55;2.80;45.70
65568;DHT22;52211;50.154;8.682;2023-03-01T05:26:24;2.80;45.70
65568;DHT22;52211;50.154;8.682;2023-03-01T05:28:55;2.70;45.60
65568;DHT22;52211;50.154;8.682;2023-03-01T05:31:24;2.80;45.70
65568;DHT22;52211;50.154;8.682;2023-03-01T05:33:51;2.70;45.60
65568;DHT22;52211;50.154;8.682;2023-03-01T05:36:20;2.70;45.80
65568;DHT22;52211;50.154;8.682;2023-03-01T05:38:49;2.70;45.80
65568;DHT22;52211;50.154;8.682;2023-03-01T05:41:18;2.70;45.90
65568;DHT22;52211;50.154;8.682;2023-03-01T05:43:45;2.70;46.00
65568;DHT22;52211;50.154;8.682;2023-03-01T05:46:12;2.70;45.90
65568;DHT22;52211;50.154;8.682;2023-03-01T05:48:46;2.70;45.80
65568;DHT22;52211;50.154;8.682;2023-03-01T05:51:15;2.70;46.00
65568;DHT22;52211;50.154;8.682;2023-03-01T05:53:45;2.70;45.90
65568;DHT22;52211;50.154;8.682;2023-03-01T05:56:17;2.70;46.10
65568;DHT22;52211;50.154;8.682;2023-03-01T05:58:43;2.70;46.00
65568;DHT22;52211;50.154;8.682;2023-03-01T06:01:15;2.70;46.00
65568;DHT22;52211;50.154;8.682;2023-03-01T06:03:42;2.70;46.00
65568;DHT22;52211;50.154;8.682;2023-03-01T06:06:09;2.70;46.00
65568;DHT22;52211;50.154;8.682;2023-03-01T06:08:36;2.60;46.00
65568;DHT22;52211;50.154;8.682;2023-03-01T06:11:05;2.70;46.00
65568;DHT22;52211;50.154;8.682;2023-03-01T06:13:36;2.70;46.20
65568;DHT22;52211;50.154;8.682;2023-03-01T06:16:06;2.60;46.10
65568;DHT22;52211;50.154;8.682;2023-03-01T06:18:37;2.70;46.20
65568;DHT22;52211;50.154;8.682;2023-03-01T06:21:05;2.70;46.20
65568;DHT22;52211;50.154;8.682;2023-03-01T06:23:33;2.60;46.20
65568;DHT22;52211;50.154;8.682;2023-03-01T06:26:05;2.70;46.20
65568;DHT22;52211;50.154;8.682;2023-03-01T06:28:35;2.70;46.40
65568;DHT22;52211;50.154;8.682;2023-03-01T06:31:09;2.60;46.30
65568;DHT22;52211;50.154;8.682;2023-03-01T06:33:36;2.60;46.40
65568;DHT22;52211;50.154;8.682;2023-03-01T06:36:07;2.70;46.40
65568;DHT22;52211;50.154;8.682;2023-03-01T06:38:37;2.70;46.40
65568;DHT22;52211;50.154;8.682;2023-03-01T06:41:06;2.70;46.50
65568;DHT22;52211;50.154;8.682;2023-03-01T06:43:38;2.70;46.30
65568;DHT22;52211;50.154;8.682;2023-03-01T06:46:08;2.70;46.40
65568;DHT22;52211;50.154;8.682;2023-03-01T06:48:38;2.70;46.40
65568;DHT22;52211;50.154;8.682;2023-03-01T06:51:07;2.70;46.50
65568;DHT22;52211;50.154;8.682;2023-03-01T06:53:34;2.80;46.60
65568;DHT22;52211;50.154;8.682;2023-03-01T06:56:06;2.80;46.70
65568;DHT22;52211;50.154;8.682;2023-03-01T06:58:37;2.80;47.30
65568;DHT22;52211;50.154;8.682;2023-03-01T07:01:08;2.80;46.60
65568;DHT22;52211;50.154;8.682;2023-03-01T07:03:37;2.80;46.70
65568;DHT22;52211;50.154;8.682;2023-03-01T07:06:07;2.90;46.70
65568;DHT22;52211;50.154;8.682;2023-03-01T07:08:41;2.90;46.70
65568;DHT22;52211;50.154;8.682;2023-03-01T07:11:15;3.00;46.80
65568;DHT22;52211;50.154;8.682;2023-03-01T07:13:45;3.00;47.40
65568;DHT22;52211;50.154;8.682;2023-03-01T07:16:14;3.10;46.70
65568;DHT22;52211;50.154;8.682;2023-03-01T07:18:41;3.10;46.70
65568;DHT22;52211;50.154;8.682;2023-03-01T07:21:12;3.10;46.70
65568;DHT22;52211;50.154;8.682;2023-03-01T07:23:43;3.20;46.80
65568;DHT22;52211;50.154;8.682;2023-03-01T07:26:10;3.20;46.80
65568;DHT22;52211;50.154;8.682;2023-03-01T07:28:37;3.20;46.60
65568;DHT22;52211;50.154;8.682;2023-03-01T07:31:05;3.30;46.60
65568;DHT22;52211;50.154;8.682;2023-03-01T07:33:40;3.30;46.70
65568;DHT22;52211;50.154;8.682;2023-03-01T07:36:12;3.30;46.70
65568;DHT22;52211;50.154;8.682;2023-03-01T07:38:41;3.30;46.60
65568;DHT22;52211;50.154;8.682;2023-03-01T07:41:08;3.30;46.50
65568;DHT22;52211;50.154;8.682;2023-03-01T07:43:40;3.30;46.50
65568;DHT22;52211;50.154;8.682;2023-03-01T07:46:09;3.30;46.70
65568;DHT22;52211;50.154;8.682;2023-03-01T07:48:36;3.30;46.60
65568;DHT22;52211;50.154;8.682;2023-03-01T07:51:06;3.30;47.20
65568;DHT22;52211;50.154;8.682;2023-03-01T07:53:36;3.40;46.80
65568;DHT22;52211;50.154;8.682;2023-03-01T07:56:12;3.40;46.70
65568;DHT22;52211;50.154;8.682;2023-03-01T07:58:45;3.40;47.10
65568;DHT22;52211;50.154;8.682;2023-03-01T08:01:17;3.40;46.80
65568;DHT22;52211;50.154;8.682;2023-03-01T08:03:45;3.40;46.80
65568;DHT22;52211;50.154;8.682;2023-03-01T08:06:17;3.40;46.70
65568;DHT22;52211;50.154;8.682;2023-03-01T08:08:44;3.40;46.80
65568;DHT22;52211;50.154;8.682;2023-03-01T08:11:14;3.50;46.90
65568;DHT22;52211;50.154;8.682;2023-03-01T08:13:43;3.50;46.80
65568;DHT22;52211;50.154;8.682;2023-03-01T08:16:12;3.40;46.80
65568;DHT22;52211;50.154;8.682;2023-03-01T08:18:43;3.50;47.00
65568;DHT22;52211;50.154;8.682;2023-03-01T08:21:13;3.50;46.80
65568;DHT22;52211;50.154;8.682;2023-03-01T08:23:42;3.60;47.00
65568;DHT22;52211;50.154;8.682;2023-03-01T08:26:21;3.60;46.80
65568;DHT22;52211;50.154;8.682;2023-03-01T08:28:50;3.60;47.30
65568;DHT22;52211;50.154;8.682;2023-03-01T08:31:28;3.60;46.90
65568;DHT22;52211;50.154;8.682;2023-03-01T08:34:02;3.70;46.80
65568;DHT22;52211;50.154;8.682;2023-03-01T08:36:37;3.70;46.80
65568;DHT22;52211;50.154;8.682;2023-03-01T08:39:09;3.80;47.00
65568;DHT22;52211;50.154;8.682;2023-03-01T08:41:40;3.80;46.90
65568;DHT22;52211;50.154;8.682;2023-03-01T08:44:12;3.80;46.90
65568;DHT22;52211;50.154;8.682;2023-03-01T08:46:41;3.80;46.90
65568;DHT22;52211;50.154;8.682;2023-03-01T08:49:13;3.90;47.00
65568;DHT22;52211;50.154;8.682;2023-03-01T08:51:45;3.90;47.00
65568;DHT22;52211;50.154;8.682;2023-03-01T08:54:19;4.00;47.00
65568;DHT22;52211;50.154;8.682;2023-03-01T08:56:48;4.00;47.20
65568;DHT22;52211;50.154;8.682;2023-03-01T08:59:23;4.10;47.00
65568;DHT22;52211;50.154;8.682;2023-03-01T09:01:54;4.10;47.00
65568;DHT22;52211;50.154;8.682;2023-03-01T09:04:26;4.20;47.00
65568;DHT22;52211;50.154;8.682;2023-03-01T09:06:55;4.30;47.10
65568;DHT22;52211;50.154;8.682;2023-03-01T09:09:24;4.30;47.00
65568;DHT22;52211;50.154;8.682;2023-03-01T09:11:56;4.30;47.00
65568;DHT22;52211;50.154;8.682;2023-03-01T09:14:27;4.40;47.00
65568;DHT22;52211;50.154;8.682;2023-03-01T09:16:56;4.50;47.00
65568;DHT22;52211;50.154;8.682;2023-03-01T09:19:23;4.50;47.00
65568;DHT22;52211;50.154;8.682;2023-03-01T09:21:57;4.60;46.90
65568;DHT22;52211;50.154;8.682;2023-03-01T09:24:26;4.60;46.90
65568;DHT22;52211;50.154;8.682;2023-03-01T09:26:55;4.70;46.90
65568;DHT22;52211;50.154;8.682;2023-03-01T09:29:25;4.80;46.80
65568;DHT22;52211;50.154;8.682;2023-03-01T09:31:52;4.80;46.80
65568;DHT22;52211;50.154;8.682;2023-03-01T09:34:22;4.80;46.70
65568;DHT22;52211;50.154;8.682;2023-03-01T09:36:50;4.90;46.70
65568;DHT22;52211;50.154;8.682;2023-03-01T09:39:18;5.00;46.70
65568;DHT22;52211;50.154;8.682;2023-03-01T09:44:38;5.10;46.70
65568;DHT22;52211;50.154;8.682;2023-03-01T09:47:24;5.10;46.90
65568;DHT22;52211;50.154;8.682;2023-03-01T09:50:16;5.20;46.80
65568;DHT22;52211;50.154;8.682;2023-03-01T09:55:52;5.30;46.60
65568;DHT22;52211;50.154;8.682;2023-03-01T10:01:40;5.40;46.70
65568;DHT22;52211;50.154;8.682;2023-03-01T10:04:55;5.50;46.80
65568;DHT22;52211;50.154;8.682;2023-03-01T10:07:32;5.50;46.50
65568;DHT22;52211;50.154;8.682;2023-03-01T10:10:14;5.50;46.40
65568;DHT22;52211;50.154;8.682;2023-03-01T10:12:53;5.60;46.60
65568;DHT22;52211;50.154;8.682;2023-03-01T10:15:33;5.70;46.70
65568;DHT22;52211;50.154;8.682;2023-03-01T10:18:12;5.90;46.80
65568;DHT22;52211;50.154;8.682;2023-03-01T10:23:32;6.20;47.50
65568;DHT22;52211;50.154;8.682;2023-03-01T10:29:11;7.00;48.00
65568;DHT22;52211;50.154;8.682;2023-03-01T10:31:49;7.40;48.20
65568;DHT22;52211;50.154;8.682;2023-03-01T10:34:25;7.70;48.00
65568;DHT22;52211;50.154;8.682;2023-03-01T10:37:17;8.10;48.00
65568;DHT22;52211;50.154;8.682;2023-03-01T10:40:04;8.50;47.80
65568;DHT22;52211;50.154;8.682;2023-03-01T10:42:47;8.90;47.90
65568;DHT22;52211;50.154;8.682;2023-03-01T10:45:37;9.30;47.80
65568;DHT22;52211;50.154;8.682;2023-03-01T10:48:15;9.70;47.40
65568;DHT22;52211;50.154;8.682;2023-03-01T10:50:48;10.00;47.10
65568;DHT22;52211;50.154;8.682;2023-03-01T10:53:23;10.40;47.60
65568;DHT22;52211;50.154;8.682;2023-03-01T10:56:15;10.70;46.90
65568;DHT22;52211;50.154;8.682;2023-03-01T10:59:01;11.10;46.30
65568;DHT22;52211;50.154;8.682;2023-03-01T11:01:32;11.50;46.40
65568;DHT22;52211;50.154;8.682;2023-03-01T11:06:38;12.20;45.50
65568;DHT22;52211;50.154;8.682;2023-03-01T11:09:18;12.40;45.50
65568;DHT22;52211;50.154;8.682;2023-03-01T11:11:58;12.70;44.80
65568;DHT22;52211;50.154;8.682;2023-03-01T11:14:32;13.20;45.00
65568;DHT22;52211;50.154;8.682;2023-03-01T11:22:50;14.40;44.40
65568;DHT22;52211;50.154;8.682;2023-03-01T11:25:37;14.70;43.70
65568;DHT22;52211;50.154;8.682;2023-03-01T11:28:14;15.10;44.60
65568;DHT22;52211;50.154;8.682;2023-03-01T11:31:01;15.40;43.20
65568;DHT22;52211;50.154;8.682;2023-03-01T11:33:44;15.70;42.10
65568;DHT22;52211;50.154;8.682;2023-03-01T11:36:35;15.80;42.70
65568;DHT22;52211;50.154;8.682;2023-03-01T11:39:23;16.10;42.30
65568;DHT22;52211;50.154;8.682;2023-03-01T11:42:12;16.40;42.00
65568;DHT22;52211;50.154;8.682;2023-03-01T11:44:49;16.60;41.80
65568;DHT22;52211;50.154;8.682;2023-03-01T11:50:47;17.10;40.70
65568;DHT22;52211;50.154;8.682;2023-03-01T11:56:28;17.50;40.80
65568;DHT22;52211;50.154;8.682;2023-03-01T11:59:32;17.70;40.90
65568;DHT22;52211;50.154;8.682;2023-03-01T12:05:44;18.20;40.00
65568;DHT22;52211;50.154;8.682;2023-03-01T12:08:46;18.40;40.10
65568;DHT22;52211;50.154;8.682;2023-03-01T12:36:47;19.20;37.90
65568;DHT22;52211;50.154;8.682;2023-03-01T12:43:00;19.50;37.20
65568;DHT22;52211;50.154;8.682;2023-03-01T12:51:36;19.70;36.70
65568;DHT22;52211;50.154;8.682;2023-03-01T12:54:27;19.90;36.80
65568;DHT22;52211;50.154;8.682;2023-03-01T12:57:12;19.80;34.60
65568;DHT22;52211;50.154;8.682;2023-03-01T13:03:05;19.80;35.50
65568;DHT22;52211;50.154;8.682;2023-03-01T13:06:22;19.70;35.10
65568;DHT22;52211;50.154;8.682;2023-03-01T13:09:25;19.60;35.50
65568;DHT22;52211;50.154;8.682;2023-03-01T13:12:43;19.80;35.70
65568;DHT22;52211;50.154;8.682;2023-03-01T13:20:49;20.00;35.30
65568;DHT22;52211;50.154;8.682;2023-03-01T13:26:10;20.30;35.30
65568;DHT22;52211;50.154;8.682;2023-03-01T13:39:00;20.70;33.60
65568;DHT22;52211;50.154;8.682;2023-03-01T13:44:33;21.00;33.60
65568;DHT22;52211;50.154;8.682;2023-03-01T13:50:00;21.30;33.50
65568;DHT22;52211;50.154;8.682;2023-03-01T13:52:47;21.30;32.50
65568;DHT22;52211;50.154;8.682;2023-03-01T13:55:44;21.30;32.20
65568;DHT22;52211;50.154;8.682;2023-03-01T14:01:03;21.60;33.10
65568;DHT22;52211;50.154;8.682;2023-03-01T14:03:39;21.80;33.20
65568;DHT22;52211;50.154;8.682;2023-03-01T14:06:14;21.80;33.00
65568;DHT22;52211;50.154;8.682;2023-03-01T14:09:03;21.90;32.30
65568;DHT22;52211;50.154;8.682;2023-03-01T14:11:57;21.80;32.10
65568;DHT22;52211;50.154;8.682;2023-03-01T14:14:46;21.80;32.10
65568;DHT22;52211;50.154;8.682;2023-03-01T14:17:35;21.70;32.00
65568;DHT22;52211;50.154;8.682;2023-03-01T14:20:37;21.60;31.80
65568;DHT22;52211;50.154;8.682;2023-03-01T14:23:12;21.50;31.80
65568;DHT22;52211;50.154;8.682;2023-03-01T14:25:57;21.50;31.60
65568;DHT22;52211;50.154;8.682;2023-03-01T14:28:27;21.40;31.10
65568;DHT22;52211;50.154;8.682;2023-03-01T14:31:38;21.40;31.90
65568;DHT22;52211;50.154;8.682;2023-03-01T14:34:23;21.30;30.70
65568;DHT22;52211;50.154;8.682;2023-03-01T14:36:53;21.20;31.40
65568;DHT22;52211;50.154;8.682;2023-03-01T14:39:24;21.00;31.10
65568;DHT22;52211;50.154;8.682;2023-03-01T14:41:54;20.70;31.00
65568;DHT22;52211;50.154;8.682;2023-03-01T14:44:30;20.50;31.30
65568;DHT22;52211;50.154;8.682;2023-03-01T14:47:05;20.30;31.10
65568;DHT22;52211;50.154;8.682;2023-03-01T14:49:37;20.00;31.10
65568;DHT22;52211;50.154;8.682;2023-03-01T14:52:06;19.80;31.10
65568;DHT22;52211;50.154;8.682;2023-03-01T14:54:52;19.60;31.00
65568;DHT22;52211;50.154;8.682;2023-03-01T14:57:23;19.30;30.80
65568;DHT22;52211;50.154;8.682;2023-03-01T14:59:54;19.00;31.30
65568;DHT22;52211;50.154;8.682;2023-03-01T15:02:27;18.60;31.30
65568;DHT22;52211;50.154;8.682;2023-03-01T15:05:01;18.40;31.40
65568;DHT22;52211;50.154;8.682;2023-03-01T15:07:40;18.00;31.20
65568;DHT22;52211;50.154;8.682;2023-03-01T15:10:19;17.70;31.30
65568;DHT22;52211;50.154;8.682;2023-03-01T15:13:24;17.30;31.20
65568;DHT22;52211;50.154;8.682;2023-03-01T15:16:06;16.90;31.20
65568;DHT22;52211;50.154;8.682;2023-03-01T15:18:49;16.60;31.40
65568;DHT22;52211;50.154;8.682;2023-03-01T15:21:24;16.30;31.50
65568;DHT22;52211;50.154;8.682;2023-03-01T15:24:01;16.10;31.90
65568;DHT22;52211;50.154;8.682;2023-03-01T15:26:42;15.90;31.90
65568;DHT22;52211;50.154;8.682;2023-03-01T15:29:21;15.70;31.90
65568;DHT22;52211;50.154;8.682;2023-03-01T15:32:04;15.50;32.00
65568;DHT22;52211;50.154;8.682;2023-03-01T15:34:36;15.30;31.90
65568;DHT22;52211;50.154;8.682;2023-03-01T15:37:38;15.20;32.40
65568;DHT22;52211;50.154;8.682;2023-03-01T15:40:23;15.00;32.00
65568;DHT22;52211;50.154;8.682;2023-03-01T15:43:05;14.90;32.40
65568;DHT22;52211;50.154;8.682;2023-03-01T15:46:00;14.70;32.40
65568;DHT22;52211;50.154;8.682;2023-03-01T15:48:30;14.50;32.20
65568;DHT22;52211;50.154;8.682;2023-03-01T15:51:02;14.30;32.50
65568;DHT22;52211;50.154;8.682;2023-03-01T15:53:31;14.20;32.50
65568;DHT22;52211;50.154;8.682;2023-03-01T15:56:02;14.00;32.50
65568;DHT22;52211;50.154;8.682;2023-03-01T15:58:29;13.90;32.70
65568;DHT22;52211;50.154;8.682;2023-03-01T16:00:55;13.80;32.70
65568;DHT22;52211;50.154;8.682;2023-03-01T16:03:30;13.60;32.80
65568;DHT22;52211;50.154;8.682;2023-03-01T16:06:01;13.50;32.80
65568;DHT22;52211;50.154;8.682;2023-03-01T16:08:29;13.30;32.80
65568;DHT22;52211;50.154;8.682;2023-03-01T16:10:56;13.20;32.90
65568;DHT22;52211;50.154;8.682;2023-03-01T16:13:23;13.00;32.90
65568;DHT22;52211;50.154;8.682;2023-03-01T16:15:57;12.90;33.00
65568;DHT22;52211;50.154;8.682;2023-03-01T16:18:27;12.80;33.00
65568;DHT22;52211;50.154;8.682;2023-03-01T16:20:58;12.60;33.00
65568;DHT22;52211;50.154;8.682;2023-03-01T16:23:25;12.50;33.10
65568;DHT22;52211;50.154;8.682;2023-03-01T16:25:59;12.40;33.10
65568;DHT22;52211;50.154;8.682;2023-03-01T16:28:26;12.20;33.00
65568;DHT22;52211;50.154;8.682;2023-03-01T16:30:55;12.10;33.10
65568;DHT22;52211;50.154;8.682;2023-03-01T16:33:22;12.00;33.20
65568;DHT22;52211;50.154;8.682;2023-03-01T16:35:58;11.80;33.20
65568;DHT22;52211;50.154;8.682;2023-03-01T16:38:31;11.70;33.30
65568;DHT22;52211;50.154;8.682;2023-03-01T16:40:58;11.60;33.40
65568;DHT22;52211;50.154;8.682;2023-03-01T16:43:25;11.40;33.30
65568;DHT22;52211;50.154;8.682;2023-03-01T16:45:55;11.30;33.40
65568;DHT22;52211;50.154;8.682;2023-03-01T16:48:22;11.20;33.50
65568;DHT22;52211;50.154;8.682;2023-03-01T16:51:01;11.10;33.50
65568;DHT22;52211;50.154;8.682;2023-03-01T16:53:30;11.00;33.60
65568;DHT22;52211;50.154;8.682;2023-03-01T16:55:59;10.90;33.70
65568;DHT22;52211;50.154;8.682;2023-03-01T16:58:29;10.80;33.80
65568;DHT22;52211;50.154;8.682;2023-03-01T17:01:14;10.70;33.80
65568;DHT22;52211;50.154;8.682;2023-03-01T17:03:43;10.60;33.90
65568;DHT22;52211;50.154;8.682;2023-03-01T17:06:15;10.50;33.90
65568;DHT22;52211;50.154;8.682;2023-03-01T17:08:44;10.40;34.00
65568;DHT22;52211;50.154;8.682;2023-03-01T17:11:14;10.30;34.00
65568;DHT22;52211;50.154;8.682;2023-03-01T17:13:50;10.20;34.10
65568;DHT22;52211;50.154;8.682;2023-03-01T17:16:22;10.10;34.10
65568;DHT22;52211;50.154;8.682;2023-03-01T17:18:49;10.10;34.30
65568;DHT22;52211;50.154;8.682;2023-03-01T17:21:17;10.00;34.30
65568;DHT22;52211;50.154;8.682;2023-03-01T17:23:46;9.90;34.30
65568;DHT22;52211;50.154;8.682;2023-03-01T17:26:18;9.80;34.40
65568;DHT22;52211;50.154;8.682;2023-03-01T17:28:48;9.70;34.50
65568;DHT22;52211;50.154;8.682;2023-03-01T17:31:18;9.60;34.50
65568;DHT22;52211;50.154;8.682;2023-03-01T17:33:48;9.50;34.50
65568;DHT22;52211;50.154;8.682;2023-03-01T17:36:18;9.40;34.60
65568;DHT22;52211;50.154;8.682;2023-03-01T17:38:45;9.40;34.70
65568;DHT22;52211;50.154;8.682;2023-03-01T17:41:15;9.30;34.70
65568;DHT22;52211;50.154;8.682;2023-03-01T17:43:44;9.30;34.80
65568;DHT22;52211;50.154;8.682;2023-03-01T17:46:14;9.20;34.80
65568;DHT22;52211;50.154;8.682;2023-03-01T17:48:41;9.10;34.90
65568;DHT22;52211;50.154;8.682;2023-03-01T17:51:10;9.10;35.00
65568;DHT22;52211;50.154;8.682;2023-03-01T17:53:39;9.00;35.10
65568;DHT22;52211;50.154;8.682;2023-03-01T17:56:06;8.90;35.10
65568;DHT22;52211;50.154;8.682;2023-03-01T17:58:39;8.90;35.10
65568;DHT22;52211;50.154;8.682;2023-03-01T18:01:11;8.80;35.20
65568;DHT22;52211;50.154;8.682;2023-03-01T18:03:42;8.80;36.00
65568;DHT22;52211;50.154;8.682;2023-03-01T18:06:16;8.70;35.40
65568;DHT22;52211;50.154;8.682;2023-03-01T18:08:52;8.60;35.40